Time;durP1;ratioP1;P1;durP2;ratioP2;P2;SDS_P1;SDS_P2;PMS_P1;PMS_P2;Temp;Humidity;BMP_temperature;BMP_pressure;BME280_temperature;BME280_humidity;BME280_pressure;Samples;Min_cycle;Max_cycle;Signal;HPM_P1;HPM_P2
2021/08/11 00:01:26;;;;;;;20.60;10.77;;;;;;;;;;5025074;28;20046;-61
2021/08/11 00:03:53;;;;;;;14.88;9.27;;;;;;;;;;5024793;28;20056;-61
2021/08/11 00:06:20;;;;;;;18.33;11.45;;;;;;;;;;5027428;28;20077;-61
2021/08/11 00:08:46;;;;;;;9.88;7.45;;;;;;;;;;5021507;28;20132;-61
2021/08/11 00:11:13;;;;;;;11.07;7.65;;;;;;;;;;5029440;28;20957;-61
2021/08/11 00:13:40;;;;;;;14.38;8.55;;;;;;;;;;5022072;28;20089;-62
2021/08/11 00:16:06;;;;;;;12.30;8.25;;;;;;;;;;5020080;28;20095;-62
2021/08/11 00:18:33;;;;;;;17.27;10.27;;;;;;;;;;5020218;28;20049;-61
2021/08/11 00:20:59;;;;;;;17.17;10.40;;;;;;;;;;5027709;28;20084;-61
2021/08/11 00:23:26;;;;;;;28.77;13.32;;;;;;;;;;5020028;28;20083;-61
2021/08/11 00:25:54;;;;;;;21.13;12.88;;;;;;;;;;5021248;28;20446;-61
2021/08/11 00:28:21;;;;;;;22.27;13.27;;;;;;;;;;5026575;28;20049;-61
2021/08/11 00:30:48;;;;;;;14.35;9.32;;;;;;;;;;5022253;28;20201;-61
2021/08/11 00:33:14;;;;;;;14.85;8.02;;;;;;;;;;5023191;28;20456;-61
2021/08/11 00:35:41;;;;;;;32.47;13.73;;;;;;;;;;5027681;28;20594;-61
2021/08/11 00:38:07;;;;;;;16.00;8.25;;;;;;;;;;5027416;28;20088;-62
2021/08/11 00:40:34;;;;;;;12.90;8.52;;;;;;;;;;5020453;28;20133;-61
2021/08/11 00:43:07;;;;;;;18.75;9.73;;;;;;;;;;5019707;28;20140;-61
2021/08/11 00:45:34;;;;;;;23.25;12.43;;;;;;;;;;5020481;28;20141;-61
2021/08/11 00:48:00;;;;;;;19.67;11.10;;;;;;;;;;5024144;28;20053;-61
2021/08/11 00:50:27;;;;;;;16.30;8.90;;;;;;;;;;5024751;28;20133;-61
2021/08/11 00:52:54;;;;;;;9.65;7.63;;;;;;;;;;5026269;28;20081;-61
2021/08/11 00:55:21;;;;;;;16.52;7.20;;;;;;;;;;5023554;28;20136;-61
2021/08/11 00:57:48;;;;;;;;;;;;;;;;;;5007434;28;20068;-61
2021/08/11 01:00:15;;;;;;;19.42;10.98;;;;;;;;;;5016516;28;19965;-61
2021/08/11 01:02:43;;;;;;;10.88;7.03;;;;;;;;;;5019749;28;20132;-61
2021/08/11 01:05:10;;;;;;;15.02;8.32;;;;;;;;;;5023416;28;20141;-61
2021/08/11 01:07:37;;;;;;;12.68;7.95;;;;;;;;;;5025204;28;20088;-61
2021/08/11 01:10:04;;;;;;;13.30;8.45;;;;;;;;;;5025794;28;20081;-61
2021/08/11 01:12:31;;;;;;;19.08;10.85;;;;;;;;;;5027182;28;20456;-62
2021/08/11 01:15:01;;;;;;;17.00;9.77;;;;;;;;;;5023078;28;20049;-61
2021/08/11 01:17:29;;;;;;;17.10;10.07;;;;;;;;;;5024734;28;20068;-61
2021/08/11 01:19:55;;;;;;;17.48;10.82;;;;;;;;;;5021564;28;20103;-61
2021/08/11 01:22:31;;;;;;;11.32;8.80;;;;;;;;;;5021857;28;20080;-61
2021/08/11 01:25:06;;;;;;;13.77;9.07;;;;;;;;;;5019444;28;20125;-61
2021/08/11 01:27:32;;;;;;;15.05;9.70;;;;;;;;;;5024287;28;20073;-61
2021/08/11 01:30:14;;;;;;;15.50;8.93;;;;;;;;;;5024990;28;20157;-61
2021/08/11 01:33:07;;;;;;;12.75;7.53;;;;;;;;;;5021829;28;20125;-61
2021/08/11 01:35:46;;;;;;;13.80;6.35;;;;;;;;;;5023731;28;20050;-61
2021/08/11 01:38:14;;;;;;;11.50;6.45;;;;;;;;;;5021011;28;20483;-61
2021/08/11 01:40:44;;;;;;;11.35;4.60;;;;;;;;;;5027074;28;20137;-61
2021/08/11 01:43:11;;;;;;;10.45;7.13;;;;;;;;;;5031858;28;20136;-61
2021/08/11 01:45:41;;;;;;;18.73;6.18;;;;;;;;;;5025688;28;20136;-63
2021/08/11 01:48:10;;;;;;;8.50;6.47;;;;;;;;;;5023954;28;20077;-63
2021/08/11 01:50:40;;;;;;;9.93;5.75;;;;;;;;;;5024946;28;20465;-63
2021/08/11 01:53:09;;;;;;;14.82;6.72;;;;;;;;;;5027365;28;20478;-63
2021/08/11 01:55:36;;;;;;;13.15;7.07;;;;;;;;;;5026659;28;20072;-63
2021/08/11 01:58:03;;;;;;;11.30;6.97;;;;;;;;;;5020193;28;20088;-63
2021/08/11 02:00:30;;;;;;;9.75;6.85;;;;;;;;;;5022832;28;20132;-63
2021/08/11 02:02:57;;;;;;;13.40;6.97;;;;;;;;;;5029618;28;20046;-63
2021/08/11 02:05:25;;;;;;;13.73;6.60;;;;;;;;;;5025482;28;20045;-63
2021/08/11 02:07:51;;;;;;;12.20;7.90;;;;;;;;;;5023796;28;20132;-63
2021/08/11 02:10:18;;;;;;;12.02;7.60;;;;;;;;;;5024159;28;20045;-63
2021/08/11 02:12:45;;;;;;;21.00;8.90;;;;;;;;;;5027188;28;20476;-63
2021/08/11 02:15:12;;;;;;;15.60;7.38;;;;;;;;;;5021988;28;20413;-63
2021/08/11 02:17:39;;;;;;;15.23;7.40;;;;;;;;;;5023695;28;20763;-63
2021/08/11 02:20:07;;;;;;;8.35;5.70;;;;;;;;;;5020995;28;20140;-63
2021/08/11 02:22:33;;;;;;;10.35;6.25;;;;;;;;;;5023743;28;20084;-63
2021/08/11 02:25:05;;;;;;;101.93;9.13;;;;;;;;;;5028013;28;20132;-63
2021/08/11 02:27:33;;;;;;;15.63;7.35;;;;;;;;;;5020824;28;20069;-63
2021/08/11 02:29:59;;;;;;;43.38;9.00;;;;;;;;;;5024869;28;20128;-63
2021/08/11 02:32:28;;;;;;;50.97;10.23;;;;;;;;;;5024967;28;20049;-64
2021/08/11 02:34:55;;;;;;;42.63;9.88;;;;;;;;;;5019065;28;20052;-63
2021/08/11 02:37:24;;;;;;;91.72;12.40;;;;;;;;;;5022665;28;20569;-63
2021/08/11 02:39:57;;;;;;;142.80;13.43;;;;;;;;;;5020824;28;20493;-63
2021/08/11 02:42:30;;;;;;;117.53;11.48;;;;;;;;;;5019273;28;20615;-63
2021/08/11 02:44:59;;;;;;;150.23;14.90;;;;;;;;;;5023284;28;20137;-63
2021/08/11 02:47:26;;;;;;;134.30;12.27;;;;;;;;;;5028237;28;20081;-63
2021/08/11 02:49:53;;;;;;;202.25;17.58;;;;;;;;;;5029949;28;20051;-63
2021/08/11 02:52:21;;;;;;;124.05;14.77;;;;;;;;;;5024063;28;20057;-63
2021/08/11 02:54:48;;;;;;;54.95;12.02;;;;;;;;;;5023422;28;20088;-63
2021/08/11 02:57:15;;;;;;;19.45;9.48;;;;;;;;;;5024423;28;20522;-63
2021/08/11 02:59:42;;;;;;;34.40;10.15;;;;;;;;;;5021898;28;20099;-63
2021/08/11 03:02:09;;;;;;;29.42;9.63;;;;;;;;;;5026941;28;20132;-63
2021/08/11 03:04:35;;;;;;;100.65;11.75;;;;;;;;;;5026389;28;20054;-63
2021/08/11 03:07:02;;;;;;;126.85;16.42;;;;;;;;;;5021855;28;20060;-63
2021/08/11 03:09:29;;;;;;;52.47;10.88;;;;;;;;;;5022681;28;20509;-64
2021/08/11 03:11:56;;;;;;;58.80;11.15;;;;;;;;;;5023784;28;20456;-63
2021/08/11 03:14:24;;;;;;;139.25;13.82;;;;;;;;;;5028439;28;20132;-64
2021/08/11 03:16:50;;;;;;;36.77;10.33;;;;;;;;;;5024337;28;20046;-63
2021/08/11 03:19:17;;;;;;;104.68;12.73;;;;;;;;;;5025681;28;20077;-63
2021/08/11 03:21:44;;;;;;;77.38;10.50;;;;;;;;;;5027172;28;20053;-63
2021/08/11 03:24:11;;;;;;;124.80;12.02;;;;;;;;;;5021060;28;20084;-63
2021/08/11 03:26:37;;;;;;;180.32;16.38;;;;;;;;;;5021324;28;20080;-63
2021/08/11 03:29:04;;;;;;;198.98;15.90;;;;;;;;;;5023453;28;20136;-63
2021/08/11 03:31:30;;;;;;;175.57;15.00;;;;;;;;;;5024798;28;20515;-63
2021/08/11 03:33:57;;;;;;;259.63;19.10;;;;;;;;;;5026642;28;20049;-63
2021/08/11 03:36:24;;;;;;;204.63;18.88;;;;;;;;;;5027125;28;20116;-63
2021/08/11 03:38:51;;;;;;;127.30;16.17;;;;;;;;;;5023530;28;20203;-64
2021/08/11 03:41:18;;;;;;;144.45;14.27;;;;;;;;;;5029750;28;20464;-63
2021/08/11 03:43:45;;;;;;;;;;;;;;;;;;5023802;28;20089;-63
2021/08/11 03:46:12;;;;;;;154.13;16.40;;;;;;;;;;5023844;28;19972;-63
2021/08/11 03:48:38;;;;;;;156.27;17.58;;;;;;;;;;5020042;28;20045;-63
2021/08/11 03:51:05;;;;;;;130.43;18.00;;;;;;;;;;5025739;28;20152;-63
2021/08/11 03:53:32;;;;;;;248.88;23.30;;;;;;;;;;5025505;28;20147;-63
2021/08/11 03:55:58;;;;;;;165.85;19.27;;;;;;;;;;5024705;28;20493;-63
2021/08/11 03:58:24;;;;;;;180.73;19.25;;;;;;;;;;5022909;28;20124;-63
2021/08/11 04:00:51;;;;;;;175.38;17.58;;;;;;;;;;5028542;28;20046;-63
2021/08/11 04:03:17;;;;;;;98.15;17.25;;;;;;;;;;5026866;28;20051;-63
2021/08/11 04:05:44;;;;;;;50.78;15.75;;;;;;;;;;5026475;28;20072;-64
2021/08/11 04:08:11;;;;;;;129.32;19.77;;;;;;;;;;5026827;28;20072;-63
2021/08/11 04:10:38;;;;;;;207.17;21.77;;;;;;;;;;5023584;28;20042;-64
2021/08/11 04:13:04;;;;;;;150.77;20.47;;;;;;;;;;5022744;28;20132;-63
2021/08/11 04:15:31;;;;;;;153.13;21.08;;;;;;;;;;5024773;28;20834;-63
2021/08/11 04:17:57;;;;;;;166.30;19.40;;;;;;;;;;5020336;28;20088;-63
2021/08/11 04:20:24;;;;;;;166.13;18.95;;;;;;;;;;5022397;28;20054;-63
2021/08/11 04:22:50;;;;;;;277.58;25.25;;;;;;;;;;5022713;28;20120;-63
2021/08/11 04:25:17;;;;;;;172.85;21.02;;;;;;;;;;5016838;28;20436;-64
2021/08/11 04:27:44;;;;;;;136.40;18.07;;;;;;;;;;5022789;28;20092;-63
2021/08/11 04:30:10;;;;;;;155.77;19.20;;;;;;;;;;5020642;28;20077;-63
2021/08/11 04:32:37;;;;;;;172.13;19.35;;;;;;;;;;5020731;28;20155;-63
2021/08/11 04:35:04;;;;;;;175.40;18.43;;;;;;;;;;5021499;28;20095;-63
2021/08/11 04:37:31;;;;;;;133.30;16.80;;;;;;;;;;5018788;28;20339;-63
2021/08/11 04:39:57;;;;;;;139.05;17.05;;;;;;;;;;5019549;28;20088;-63
2021/08/11 04:42:24;;;;;;;191.00;17.05;;;;;;;;;;5028351;28;20045;-63
2021/08/11 04:44:51;;;;;;;185.32;18.35;;;;;;;;;;5023103;28;20129;-63
2021/08/11 04:47:17;;;;;;;147.00;16.38;;;;;;;;;;5019763;28;20084;-63
2021/08/11 04:49:44;;;;;;;199.00;17.23;;;;;;;;;;5026472;28;20060;-63
2021/08/11 04:52:10;;;;;;;214.77;17.15;;;;;;;;;;5022413;28;20128;-63
2021/08/11 04:54:37;;;;;;;149.27;15.23;;;;;;;;;;5018628;28;20132;-64
2021/08/11 04:57:05;;;;;;;209.63;21.70;;;;;;;;;;5021889;28;20756;-63
2021/08/11 04:59:31;;;;;;;164.70;17.77;;;;;;;;;;5019131;28;20041;-63
2021/08/11 05:01:58;;;;;;;105.68;13.60;;;;;;;;;;5023992;28;20569;-63
2021/08/11 05:04:25;;;;;;;113.55;15.85;;;;;;;;;;5032062;28;20045;-63
2021/08/11 05:06:51;;;;;;;84.82;13.70;;;;;;;;;;5026177;28;20557;-63
2021/08/11 05:09:18;;;;;;;133.80;14.73;;;;;;;;;;5025679;28;20124;-63
2021/08/11 05:11:45;;;;;;;75.00;12.40;;;;;;;;;;5024391;28;20053;-63
2021/08/11 05:14:11;;;;;;;86.45;12.35;;;;;;;;;;5028288;28;20045;-63
2021/08/11 05:16:38;;;;;;;57.00;12.02;;;;;;;;;;5025448;28;20093;-62
2021/08/11 05:19:04;;;;;;;19.70;9.63;;;;;;;;;;5028204;28;20136;-61
2021/08/11 05:21:32;;;;;;;48.92;10.18;;;;;;;;;;5029227;28;20356;-61
2021/08/11 05:23:58;;;;;;;;;;;;;;;;;;5024522;28;20129;-61
2021/08/11 05:26:25;;;;;;;34.80;9.57;;;;;;;;;;5020699;28;19925;-61
2021/08/11 05:28:51;;;;;;;47.40;12.23;;;;;;;;;;5025463;28;20121;-61
2021/08/11 05:31:18;;;;;;;24.98;11.68;;;;;;;;;;5027617;28;20138;-61
2021/08/11 05:33:45;;;;;;;35.70;11.07;;;;;;;;;;5024547;28;20464;-61
2021/08/11 05:36:11;;;;;;;29.17;9.80;;;;;;;;;;5023516;28;20894;-61
2021/08/11 05:38:37;;;;;;;28.35;7.80;;;;;;;;;;5022032;28;20144;-62
2021/08/11 05:41:04;;;;;;;25.45;10.85;;;;;;;;;;5024847;28;20099;-61
2021/08/11 05:43:31;;;;;;;17.67;8.90;;;;;;;;;;5024158;28;20056;-61
2021/08/11 05:45:58;;;;;;;26.27;9.87;;;;;;;;;;5020900;28;20395;-61
2021/08/11 05:48:25;;;;;;;61.33;9.57;;;;;;;;;;5027473;28;20870;-61
2021/08/11 05:50:52;;;;;;;22.35;9.05;;;;;;;;;;5026480;28;20171;-61
2021/08/11 05:53:18;;;;;;;41.55;10.55;;;;;;;;;;5024500;28;20133;-61
2021/08/11 05:55:45;;;;;;;24.23;9.97;;;;;;;;;;5028301;28;20239;-61
2021/08/11 05:58:11;;;;;;;20.38;9.88;;;;;;;;;;5022073;28;20132;-61
2021/08/11 06:00:38;;;;;;;24.67;9.15;;;;;;;;;;5032342;28;20081;-61
2021/08/11 06:03:05;;;;;;;31.15;9.55;;;;;;;;;;5026668;28;20076;-61
2021/08/11 06:05:32;;;;;;;17.67;7.63;;;;;;;;;;5024269;28;20050;-62
2021/08/11 06:07:59;;;;;;;18.13;8.83;;;;;;;;;;5019737;28;20088;-61
2021/08/11 06:10:26;;;;;;;29.85;8.10;;;;;;;;;;5028300;28;20131;-61
2021/08/11 06:12:53;;;;;;;16.10;8.88;;;;;;;;;;5023194;28;20405;-61
2021/08/11 06:15:20;;;;;;;28.38;9.10;;;;;;;;;;5021447;28;20096;-61
2021/08/11 06:17:48;;;;;;;18.20;8.47;;;;;;;;;;5024819;28;20084;-61
2021/08/11 06:20:16;;;;;;;31.27;8.45;;;;;;;;;;5023982;28;20129;-61
2021/08/11 06:22:42;;;;;;;19.98;8.32;;;;;;;;;;5023942;28;20130;-61
2021/08/11 06:25:10;;;;;;;18.15;8.27;;;;;;;;;;5021440;28;20054;-62
2021/08/11 06:27:36;;;;;;;11.43;8.40;;;;;;;;;;5027866;28;20573;-61
2021/08/11 06:30:07;;;;;;;10.57;7.18;;;;;;;;;;5027947;28;20452;-61
2021/08/11 06:32:34;;;;;;;11.23;7.10;;;;;;;;;;5020454;28;20064;-61
2021/08/11 06:35:01;;;;;;;11.70;7.47;;;;;;;;;;5025296;28;20049;-61
2021/08/11 06:37:28;;;;;;;18.27;8.77;;;;;;;;;;5023907;28;20516;-61
2021/08/11 06:39:54;;;;;;;14.63;9.52;;;;;;;;;;5029395;28;20088;-61
2021/08/11 06:42:21;;;;;;;13.00;8.82;;;;;;;;;;5019133;28;20088;-61
2021/08/11 06:44:47;;;;;;;15.73;10.13;;;;;;;;;;5028922;28;20115;-61
2021/08/11 06:47:14;;;;;;;18.27;11.07;;;;;;;;;;5021303;28;20073;-61
2021/08/11 06:49:41;;;;;;;22.88;10.90;;;;;;;;;;5021222;28;20076;-61
2021/08/11 06:52:07;;;;;;;18.23;10.15;;;;;;;;;;5027470;28;20477;-61
2021/08/11 06:54:34;;;;;;;30.92;10.77;;;;;;;;;;5024784;28;20577;-61
2021/08/11 06:57:00;;;;;;;15.95;10.40;;;;;;;;;;5026381;28;20131;-61
2021/08/11 06:59:26;;;;;;;18.05;12.30;;;;;;;;;;5027352;28;20133;-61
2021/08/11 07:01:53;;;;;;;19.45;13.05;;;;;;;;;;5022840;28;20070;-61
2021/08/11 07:04:20;;;;;;;18.42;13.93;;;;;;;;;;5020375;28;20049;-61
2021/08/11 07:06:47;;;;;;;18.00;12.38;;;;;;;;;;5023931;28;20068;-61
2021/08/11 07:09:14;;;;;;;20.80;14.03;;;;;;;;;;5022957;28;20085;-61
2021/08/11 07:11:40;;;;;;;21.92;14.75;;;;;;;;;;5022734;28;20045;-61
2021/08/11 07:14:07;;;;;;;20.98;14.50;;;;;;;;;;5022897;28;20129;-61
2021/08/11 07:16:35;;;;;;;17.83;13.45;;;;;;;;;;5018928;28;20365;-61
2021/08/11 07:19:01;;;;;;;19.02;14.20;;;;;;;;;;5016779;28;20057;-61
2021/08/11 07:21:28;;;;;;;17.85;13.95;;;;;;;;;;5027735;28;20133;-61
2021/08/11 07:23:54;;;;;;;19.20;13.98;;;;;;;;;;5022285;28;20081;-61
2021/08/11 07:26:21;;;;;;;17.60;13.75;;;;;;;;;;5020279;28;20054;-61
2021/08/11 07:28:47;;;;;;;23.83;15.55;;;;;;;;;;5022608;28;20140;-61
2021/08/11 07:31:14;;;;;;;21.10;14.15;;;;;;;;;;5020451;28;20297;-61
2021/08/11 07:33:40;;;;;;;21.98;15.13;;;;;;;;;;5020649;28;20052;-61
2021/08/11 07:36:06;;;;;;;20.25;14.75;;;;;;;;;;5023563;28;20121;-61
2021/08/11 07:38:33;;;;;;;19.58;14.25;;;;;;;;;;5018507;28;20141;-61
2021/08/11 07:40:59;;;;;;;21.85;14.18;;;;;;;;;;5025635;28;20112;-61
2021/08/11 07:43:28;;;;;;;18.10;14.30;;;;;;;;;;5026636;28;20050;-61
2021/08/11 07:45:54;;;;;;;21.13;14.80;;;;;;;;;;5024337;28;20075;-61
2021/08/11 07:48:32;;;;;;;;;;;;;;;;;;5022336;28;20092;-61
2021/08/11 07:50:59;;;;;;;16.20;13.70;;;;;;;;;;5023663;28;20224;-61
2021/08/11 07:53:25;;;;;;;17.27;14.25;;;;;;;;;;5019121;28;20556;-61
2021/08/11 07:55:52;;;;;;;17.23;12.43;;;;;;;;;;5021632;28;20128;-61
2021/08/11 07:58:23;;;;;;;16.30;12.05;;;;;;;;;;5022146;28;20072;-61
2021/08/11 08:00:50;;;;;;;15.32;11.32;;;;;;;;;;5017346;28;20046;-61
2021/08/11 08:03:17;;;;;;;14.05;10.93;;;;;;;;;;5025288;28;20136;-61
2021/08/11 08:05:45;;;;;;;12.85;10.82;;;;;;;;;;5021766;28;20053;-61
2021/08/11 08:08:11;;;;;;;14.63;10.93;;;;;;;;;;5019384;28;20148;-61
2021/08/11 08:10:38;;;;;;;13.63;10.55;;;;;;;;;;5019710;28;20128;-61
2021/08/11 08:13:05;;;;;;;13.40;9.48;;;;;;;;;;5019025;28;20153;-61
2021/08/11 08:15:31;;;;;;;12.05;9.88;;;;;;;;;;5022426;28;20077;-61
2021/08/11 08:17:58;;;;;;;12.38;9.00;;;;;;;;;;5024292;28;20048;-61
2021/08/11 08:20:24;;;;;;;11.02;9.15;;;;;;;;;;5022157;28;20089;-61
2021/08/11 08:22:51;;;;;;;12.00;9.35;;;;;;;;;;5021165;28;20644;-61
2021/08/11 08:25:21;;;;;;;12.52;9.55;;;;;;;;;;5022213;28;20524;-61
2021/08/11 08:27:49;;;;;;;14.00;8.80;;;;;;;;;;5023040;28;20073;-61
2021/08/11 08:30:36;;;;;;;10.65;7.70;;;;;;;;;;5024287;28;20055;-61
2021/08/11 08:33:03;;;;;;;10.93;7.18;;;;;;;;;;5021764;28;20520;-61
2021/08/11 08:35:29;;;;;;;11.50;8.75;;;;;;;;;;5027316;28;20078;-61
2021/08/11 08:37:56;;;;;;;10.35;8.18;;;;;;;;;;5025642;28;20341;-61
2021/08/11 08:40:28;;;;;;;11.75;8.35;;;;;;;;;;5026582;28;20160;-61
2021/08/11 08:42:54;;;;;;;9.57;7.95;;;;;;;;;;5022790;28;20042;-61
2021/08/11 08:45:22;;;;;;;9.15;7.70;;;;;;;;;;5023211;28;20543;-61
2021/08/11 08:47:50;;;;;;;8.32;6.93;;;;;;;;;;5024982;28;20124;-61
2021/08/11 08:50:20;;;;;;;9.85;6.10;;;;;;;;;;5022998;28;20080;-61
2021/08/11 08:52:46;;;;;;;7.68;5.68;;;;;;;;;;5020080;28;20162;-61
2021/08/11 08:55:15;;;;;;;6.75;5.70;;;;;;;;;;5026394;28;20050;-61
2021/08/11 08:57:41;;;;;;;9.65;5.75;;;;;;;;;;5025334;28;20136;-61
2021/08/11 09:00:08;;;;;;;8.95;6.00;;;;;;;;;;5021297;28;20149;-61
2021/08/11 09:02:38;;;;;;;6.18;5.43;;;;;;;;;;5023749;28;20129;-61
2021/08/11 09:05:09;;;;;;;7.03;5.45;;;;;;;;;;5025243;28;20119;-61
2021/08/11 09:07:37;;;;;;;6.53;5.82;;;;;;;;;;5021847;28;20127;-61
2021/08/11 09:10:36;;;;;;;9.75;5.60;;;;;;;;;;5017259;28;20050;-61
2021/08/11 09:13:07;;;;;;;;;;;;;;;;;;4979076;28;20049;-61
2021/08/11 09:15:40;;;;;;;7.82;4.82;;;;;;;;;;5026384;28;19992;-61
2021/08/11 09:18:11;;;;;;;6.78;3.75;;;;;;;;;;5022861;28;20049;-61
2021/08/11 09:20:38;;;;;;;5.72;4.05;;;;;;;;;;5025585;28;20136;-61
2021/08/11 09:23:07;;;;;;;9.37;4.10;;;;;;;;;;5018757;28;20136;-61
2021/08/11 09:25:35;;;;;;;5.60;3.38;;;;;;;;;;5024051;28;20383;-61
2021/08/11 09:28:05;;;;;;;4.82;3.20;;;;;;;;;;5020236;28;20092;-61
2021/08/11 09:30:52;;;;;;;4.05;2.90;;;;;;;;;;5019845;28;20053;-61
2021/08/11 09:33:26;;;;;;;4.95;3.00;;;;;;;;;;5024236;28;20092;-61
2021/08/11 09:35:53;;;;;;;6.50;3.05;;;;;;;;;;5022665;28;20080;-61
2021/08/11 09:38:20;;;;;;;3.92;2.92;;;;;;;;;;5020580;28;20173;-61
2021/08/11 09:40:47;;;;;;;3.72;2.85;;;;;;;;;;5021813;28;20045;-61
2021/08/11 09:43:18;;;;;;;3.58;2.80;;;;;;;;;;5023966;28;20130;-61
2021/08/11 09:45:52;;;;;;;4.40;3.00;;;;;;;;;;5007248;28;20057;-61
2021/08/11 09:48:20;;;;;;;6.78;2.55;;;;;;;;;;5007342;28;20084;-61
2021/08/11 09:50:48;;;;;;;3.58;2.92;;;;;;;;;;5011497;28;20129;-61
2021/08/11 09:53:16;;;;;;;4.20;2.83;;;;;;;;;;5006992;28;20124;-62
2021/08/11 09:56:02;;;;;;;4.40;2.70;;;;;;;;;;5009575;28;20077;-62
2021/08/11 09:58:49;;;;;;;4.05;2.63;;;;;;;;;;5006074;28;20048;-61
2021/08/11 10:01:16;;;;;;;5.65;2.60;;;;;;;;;;5003096;28;20133;-61
2021/08/11 10:03:54;;;;;;;4.38;2.70;;;;;;;;;;5016512;28;20091;-61
2021/08/11 10:06:24;;;;;;;4.28;2.53;;;;;;;;;;5009776;28;20129;-62
2021/08/11 10:08:51;;;;;;;5.38;2.75;;;;;;;;;;5012654;28;20544;-61
2021/08/11 10:11:33;;;;;;;5.05;2.75;;;;;;;;;;5011010;28;20086;-61
2021/08/11 10:14:02;;;;;;;3.65;2.50;;;;;;;;;;5002456;28;20046;-61
2021/08/11 10:16:30;;;;;;;5.32;3.00;;;;;;;;;;5013805;28;20041;-61
2021/08/11 10:18:57;;;;;;;4.35;2.55;;;;;;;;;;5007068;28;20049;-62
2021/08/11 10:21:23;;;;;;;;;;;;;;;;;;5009658;28;20900;-62
2021/08/11 10:23:50;;;;;;;4.80;2.97;;;;;;;;;;5008038;28;19965;-62
2021/08/11 10:26:16;;;;;;;4.47;2.97;;;;;;;;;;5006970;28;20478;-62
2021/08/11 10:28:45;;;;;;;5.70;2.92;;;;;;;;;;5011114;28;20501;-62
2021/08/11 10:31:12;;;;;;;5.18;2.85;;;;;;;;;;5008020;28;20133;-62
2021/08/11 10:33:39;;;;;;;4.35;2.85;;;;;;;;;;5008995;28;20046;-62
2021/08/11 10:36:06;;;;;;;4.82;2.85;;;;;;;;;;5005033;28;20096;-62
2021/08/11 10:38:34;;;;;;;6.85;3.00;;;;;;;;;;5017603;28;20137;-62
2021/08/11 10:41:00;;;;;;;5.53;2.95;;;;;;;;;;5010042;28;20050;-62
2021/08/11 10:43:32;;;;;;;3.25;2.70;;;;;;;;;;5009079;28;20073;-62
2021/08/11 10:46:00;;;;;;;7.28;3.08;;;;;;;;;;5028796;28;20128;-62
2021/08/11 10:48:27;;;;;;;4.55;2.40;;;;;;;;;;5026130;28;20042;-62
2021/08/11 10:50:54;;;;;;;3.80;2.67;;;;;;;;;;5025157;28;20120;-62
2021/08/11 10:53:20;;;;;;;3.95;2.42;;;;;;;;;;5025876;28;20312;-62
2021/08/11 10:55:49;;;;;;;4.55;2.67;;;;;;;;;;5021234;28;20133;-62
2021/08/11 10:58:34;;;;;;;4.68;3.13;;;;;;;;;;5027704;28;20091;-62
2021/08/11 11:01:01;;;;;;;5.53;2.95;;;;;;;;;;5023536;28;20524;-62
2021/08/11 11:03:28;;;;;;;;;;;;;;;;;;5025346;28;20076;-62
2021/08/11 11:05:55;;;;;;;7.80;2.97;;;;;;;;;;5023947;28;19928;-62
2021/08/11 11:08:28;;;;;;;3.53;2.78;;;;;;;;;;5022530;28;20129;-62
2021/08/11 11:10:55;;;;;;;6.00;3.20;;;;;;;;;;5026600;28;20132;-63
2021/08/11 11:13:29;;;;;;;6.35;3.08;;;;;;;;;;5027298;28;20141;-62
2021/08/11 11:15:56;;;;;;;5.05;2.90;;;;;;;;;;5026273;28;20489;-62
2021/08/11 11:18:24;;;;;;;;;;;;;;;;;;5022586;28;20049;-62
2021/08/11 11:20:56;;;;;;;4.88;2.80;;;;;;;;;;5021714;28;19968;-62
2021/08/11 11:23:33;;;;;;;5.68;2.78;;;;;;;;;;5026885;28;20767;-62
2021/08/11 11:26:00;;;;;;;5.75;3.28;;;;;;;;;;5025866;28;20128;-62
2021/08/11 11:28:46;;;;;;;5.10;3.03;;;;;;;;;;5023635;28;20077;-62
2021/08/11 11:31:28;;;;;;;4.85;2.58;;;;;;;;;;5017971;28;20136;-62
2021/08/11 11:33:54;;;;;;;6.65;3.00;;;;;;;;;;5018833;28;20056;-62
2021/08/11 11:36:23;;;;;;;6.63;3.00;;;;;;;;;;5024238;28;20141;-62
2021/08/11 11:39:02;;;;;;;6.82;3.03;;;;;;;;;;5022340;28;20137;-62
2021/08/11 11:41:29;;;;;;;6.22;2.90;;;;;;;;;;5024447;28;20128;-62
2021/08/11 11:43:57;;;;;;;4.88;2.90;;;;;;;;;;5019317;28;20088;-62
2021/08/11 11:46:42;;;;;;;7.80;3.40;;;;;;;;;;5026313;28;20119;-62
2021/08/11 11:49:16;;;;;;;7.53;3.08;;;;;;;;;;5022665;28;20141;-62
2021/08/11 11:51:44;;;;;;;8.52;3.28;;;;;;;;;;5029986;28;20487;-62
2021/08/11 11:54:11;;;;;;;7.15;3.20;;;;;;;;;;5025189;28;20049;-62
2021/08/11 11:56:37;;;;;;;11.30;4.13;;;;;;;;;;5027015;28;20083;-63
2021/08/11 11:59:07;;;;;;;8.07;3.40;;;;;;;;;;5027733;28;20136;-62
2021/08/11 12:01:35;;;;;;;5.95;3.28;;;;;;;;;;5019938;28;20136;-62
2021/08/11 12:04:02;;;;;;;7.32;3.40;;;;;;;;;;5025566;28;20497;-62
2021/08/11 12:06:32;;;;;;;9.20;3.60;;;;;;;;;;5029337;28;20128;-62
2021/08/11 12:09:00;;;;;;;11.40;3.45;;;;;;;;;;5024326;28;20540;-62
2021/08/11 12:11:27;;;;;;;13.45;3.83;;;;;;;;;;5023536;28;20081;-62
2021/08/11 12:13:54;;;;;;;9.95;3.38;;;;;;;;;;5022606;28;20070;-62
2021/08/11 12:16:22;;;;;;;10.90;3.40;;;;;;;;;;5028440;28;20464;-62
2021/08/11 12:18:49;;;;;;;10.02;3.53;;;;;;;;;;5020510;28;20511;-62
2021/08/11 12:21:17;;;;;;;11.90;4.07;;;;;;;;;;5025266;28;20152;-62
2021/08/11 12:23:44;;;;;;;8.10;3.63;;;;;;;;;;5022821;28;20108;-61
2021/08/11 12:26:15;;;;;;;9.20;3.70;;;;;;;;;;5023009;28;20089;-61
2021/08/11 12:28:49;;;;;;;8.93;3.67;;;;;;;;;;5026020;28;20879;-61
2021/08/11 12:31:20;;;;;;;7.95;3.65;;;;;;;;;;5019034;28;20136;-61
2021/08/11 12:33:48;;;;;;;5.57;3.60;;;;;;;;;;5024604;28;20064;-61
2021/08/11 12:36:21;;;;;;;10.50;3.40;;;;;;;;;;5026280;28;20073;-61
2021/08/11 12:39:03;;;;;;;7.70;3.28;;;;;;;;;;5025134;28;20045;-61
2021/08/11 12:41:30;;;;;;;6.55;3.22;;;;;;;;;;5026054;28;20141;-61
2021/08/11 12:43:58;;;;;;;9.10;3.42;;;;;;;;;;5026260;28;20050;-61
2021/08/11 12:46:43;;;;;;;9.95;3.70;;;;;;;;;;5022603;28;20080;-61
2021/08/11 12:49:23;;;;;;;6.75;3.10;;;;;;;;;;5022088;28;20091;-61
2021/08/11 12:52:23;;;;;;;5.70;2.85;;;;;;;;;;5032852;28;20072;-61
2021/08/11 12:54:56;;;;;;;6.78;2.97;;;;;;;;;;5022897;28;20148;-61
2021/08/11 12:57:23;;;;;;;6.95;2.97;;;;;;;;;;5030478;28;20132;-62
2021/08/11 12:59:51;;;;;;;7.20;3.08;;;;;;;;;;5029261;28;20156;-61
2021/08/11 13:02:19;;;;;;;5.95;2.60;;;;;;;;;;5021539;28;20511;-62
2021/08/11 13:04:45;;;;;;;4.82;2.65;;;;;;;;;;5018340;28;20099;-61
2021/08/11 13:07:12;;;;;;;8.77;3.20;;;;;;;;;;5030757;28;20136;-61
2021/08/11 13:09:38;;;;;;;8.82;2.78;;;;;;;;;;5027309;28;20383;-61
2021/08/11 13:12:08;;;;;;;6.38;2.92;;;;;;;;;;5025084;28;20050;-61
2021/08/11 13:14:43;;;;;;;7.40;2.75;;;;;;;;;;5022528;28;20077;-61
2021/08/11 13:17:10;;;;;;;4.95;2.47;;;;;;;;;;5024759;28;20054;-61
2021/08/11 13:19:37;;;;;;;5.30;2.60;;;;;;;;;;5025317;28;20132;-61
2021/08/11 13:22:04;;;;;;;5.95;2.67;;;;;;;;;;5022829;28;20742;-61
2021/08/11 13:24:30;;;;;;;5.60;2.27;;;;;;;;;;5032064;28;20124;-61
2021/08/11 13:26:58;;;;;;;5.60;2.45;;;;;;;;;;5028952;28;20396;-61
2021/08/11 13:29:25;;;;;;;4.30;2.50;;;;;;;;;;5027966;28;20182;-61
2021/08/11 13:31:52;;;;;;;5.60;2.65;;;;;;;;;;5031548;28;20584;-61
2021/08/11 13:34:19;;;;;;;6.05;2.58;;;;;;;;;;5035282;28;20144;-61
2021/08/11 13:36:46;;;;;;;4.40;2.50;;;;;;;;;;5025145;28;20129;-61
2021/08/11 13:39:12;;;;;;;4.87;2.17;;;;;;;;;;5027864;28;20081;-61
2021/08/11 13:41:39;;;;;;;3.25;2.30;;;;;;;;;;5030538;28;20816;-62
2021/08/11 13:44:06;;;;;;;5.55;2.08;;;;;;;;;;5029106;28;20057;-61
2021/08/11 13:46:33;;;;;;;6.67;2.83;;;;;;;;;;5023356;28;20099;-61
2021/08/11 13:49:00;;;;;;;3.85;2.47;;;;;;;;;;5029076;28;20099;-61
2021/08/11 13:51:26;;;;;;;9.88;2.00;;;;;;;;;;5028775;28;20080;-62
2021/08/11 13:53:53;;;;;;;5.57;2.00;;;;;;;;;;5019449;28;20076;-61
2021/08/11 13:56:21;;;;;;;6.25;2.15;;;;;;;;;;5028464;28;20595;-61
2021/08/11 13:58:48;;;;;;;5.68;2.05;;;;;;;;;;5026654;28;20128;-61
2021/08/11 14:01:15;;;;;;;5.70;2.00;;;;;;;;;;5026492;28;20050;-61
2021/08/11 14:03:42;;;;;;;4.97;1.92;;;;;;;;;;5024971;28;20069;-61
2021/08/11 14:06:08;;;;;;;6.72;2.25;;;;;;;;;;5027560;28;20049;-61
2021/08/11 14:08:35;;;;;;;5.63;1.90;;;;;;;;;;5022201;28;20129;-61
2021/08/11 14:11:01;;;;;;;3.40;2.13;;;;;;;;;;5027836;28;20395;-61
2021/08/11 14:13:28;;;;;;;5.43;1.70;;;;;;;;;;5023495;28;20505;-61
2021/08/11 14:15:54;;;;;;;4.25;1.92;;;;;;;;;;5021147;28;20128;-61
2021/08/11 14:18:21;;;;;;;7.18;1.90;;;;;;;;;;5021754;28;20801;-61
2021/08/11 14:20:47;;;;;;;6.90;2.17;;;;;;;;;;5022546;28;20140;-61
2021/08/11 14:23:14;;;;;;;4.77;2.20;;;;;;;;;;5025485;28;20140;-62
2021/08/11 14:25:41;;;;;;;7.80;2.33;;;;;;;;;;5023863;28;20146;-62
2021/08/11 14:28:07;;;;;;;4.27;2.10;;;;;;;;;;5020450;28;20138;-62
2021/08/11 14:30:33;;;;;;;3.58;1.70;;;;;;;;;;5025316;28;20516;-62
2021/08/11 14:33:00;;;;;;;5.93;1.73;;;;;;;;;;5029918;28;20128;-62
2021/08/11 14:35:26;;;;;;;5.33;1.67;;;;;;;;;;5026406;28;20081;-62
2021/08/11 14:37:53;;;;;;;4.13;1.70;;;;;;;;;;5023241;28;20065;-62